sensor_id;sensor_type;location;lat;lon;timestamp;P1;durP1;ratioP1;P2;durP2;ratioP2
5569;SDS011;2808;51.240;6.794;2022-07-23T00:00:56;21.90;;;12.30;;
5569;SDS011;2808;51.240;6.794;2022-07-23T00:03:41;24.13;;;12.43;;
5569;SDS011;2808;51.240;6.794;2022-07-23T00:07:01;27.77;;;12.90;;
5569;SDS011;2808;51.240;6.794;2022-07-23T00:09:37;23.20;;;12.97;;
5569;SDS011;2808;51.240;6.794;2022-07-23T00:12:25;22.83;;;12.80;;
5569;SDS011;2808;51.240;6.794;2022-07-23T00:18:55;25.83;;;13.07;;
5569;SDS011;2808;51.240;6.794;2022-07-23T00:21:37;24.13;;;12.83;;
5569;SDS011;2808;51.240;6.794;2022-07-23T00:24:37;22.73;;;12.93;;
5569;SDS011;2808;51.240;6.794;2022-07-23T00:27:19;28.83;;;13.60;;
5569;SDS011;2808;51.240;6.794;2022-07-23T00:29:48;27.20;;;13.53;;
5569;SDS011;2808;51.240;6.794;2022-07-23T00:32:16;24.00;;;13.33;;
5569;SDS011;2808;51.240;6.794;2022-07-23T00:34:45;23.50;;;12.97;;
5569;SDS011;2808;51.240;6.794;2022-07-23T00:37:12;21.73;;;13.37;;
5569;SDS011;2808;51.240;6.794;2022-07-23T00:39:40;24.77;;;12.83;;
5569;SDS011;2808;51.240;6.794;2022-07-23T00:42:07;23.50;;;12.30;;
5569;SDS011;2808;51.240;6.794;2022-07-23T00:44:34;24.40;;;14.10;;
5569;SDS011;2808;51.240;6.794;2022-07-23T00:47:02;23.67;;;14.00;;
5569;SDS011;2808;51.240;6.794;2022-07-23T00:49:31;22.43;;;12.93;;
5569;SDS011;2808;51.240;6.794;2022-07-23T00:52:00;22.63;;;12.80;;
5569;SDS011;2808;51.240;6.794;2022-07-23T00:54:28;23.97;;;12.97;;
5569;SDS011;2808;51.240;6.794;2022-07-23T00:56:56;23.83;;;13.10;;
5569;SDS011;2808;51.240;6.794;2022-07-23T00:59:23;26.50;;;13.27;;
5569;SDS011;2808;51.240;6.794;2022-07-23T01:01:51;23.83;;;12.87;;
5569;SDS011;2808;51.240;6.794;2022-07-23T01:04:19;23.90;;;12.93;;
5569;SDS011;2808;51.240;6.794;2022-07-23T01:06:46;21.07;;;12.70;;
5569;SDS011;2808;51.240;6.794;2022-07-23T01:09:15;24.80;;;13.53;;
5569;SDS011;2808;51.240;6.794;2022-07-23T01:11:43;34.73;;;19.90;;
5569;SDS011;2808;51.240;6.794;2022-07-23T01:14:11;49.70;;;31.60;;
5569;SDS011;2808;51.240;6.794;2022-07-23T01:16:40;49.37;;;28.73;;
5569;SDS011;2808;51.240;6.794;2022-07-23T01:19:08;30.80;;;16.37;;
5569;SDS011;2808;51.240;6.794;2022-07-23T01:21:37;67.60;;;40.57;;
5569;SDS011;2808;51.240;6.794;2022-07-23T01:24:07;71.67;;;44.87;;
5569;SDS011;2808;51.240;6.794;2022-07-23T01:26:35;41.13;;;23.93;;
5569;SDS011;2808;51.240;6.794;2022-07-23T01:29:03;27.60;;;15.63;;
5569;SDS011;2808;51.240;6.794;2022-07-23T01:31:31;78.60;;;49.73;;
5569;SDS011;2808;51.240;6.794;2022-07-23T01:33:59;57.53;;;36.30;;
5569;SDS011;2808;51.240;6.794;2022-07-23T01:36:26;55.10;;;29.97;;
5569;SDS011;2808;51.240;6.794;2022-07-23T01:38:54;30.47;;;16.97;;
5569;SDS011;2808;51.240;6.794;2022-07-23T01:41:23;27.43;;;14.80;;
5569;SDS011;2808;51.240;6.794;2022-07-23T01:43:50;26.77;;;15.20;;
5569;SDS011;2808;51.240;6.794;2022-07-23T01:46:18;35.77;;;20.70;;
5569;SDS011;2808;51.240;6.794;2022-07-23T01:48:45;67.63;;;39.03;;
5569;SDS011;2808;51.240;6.794;2022-07-23T01:51:13;60.00;;;35.10;;
5569;SDS011;2808;51.240;6.794;2022-07-23T01:53:40;25.87;;;15.77;;
5569;SDS011;2808;51.240;6.794;2022-07-23T01:56:08;23.93;;;13.83;;
5569;SDS011;2808;51.240;6.794;2022-07-23T01:58:37;25.20;;;14.23;;
5569;SDS011;2808;51.240;6.794;2022-07-23T02:01:04;26.83;;;14.40;;
5569;SDS011;2808;51.240;6.794;2022-07-23T02:03:32;22.53;;;13.30;;
5569;SDS011;2808;51.240;6.794;2022-07-23T02:05:59;30.53;;;14.50;;
5569;SDS011;2808;51.240;6.794;2022-07-23T02:08:26;20.13;;;13.17;;
5569;SDS011;2808;51.240;6.794;2022-07-23T02:10:54;28.83;;;14.87;;
5569;SDS011;2808;51.240;6.794;2022-07-23T02:13:21;22.13;;;13.40;;
5569;SDS011;2808;51.240;6.794;2022-07-23T02:15:51;24.60;;;13.97;;
5569;SDS011;2808;51.240;6.794;2022-07-23T02:18:18;26.67;;;12.97;;
5569;SDS011;2808;51.240;6.794;2022-07-23T02:20:46;21.50;;;13.07;;
5569;SDS011;2808;51.240;6.794;2022-07-23T02:23:13;25.43;;;13.70;;
5569;SDS011;2808;51.240;6.794;2022-07-23T02:25:41;20.60;;;13.20;;
5569;SDS011;2808;51.240;6.794;2022-07-23T02:28:08;23.17;;;12.63;;
5569;SDS011;2808;51.240;6.794;2022-07-23T02:30:36;24.53;;;12.50;;
5569;SDS011;2808;51.240;6.794;2022-07-23T02:33:05;22.67;;;10.73;;
5569;SDS011;2808;51.240;6.794;2022-07-23T02:35:33;24.20;;;12.83;;
5569;SDS011;2808;51.240;6.794;2022-07-23T02:38:00;21.90;;;11.60;;
5569;SDS011;2808;51.240;6.794;2022-07-23T02:40:28;18.80;;;12.50;;
5569;SDS011;2808;51.240;6.794;2022-07-23T02:42:55;18.00;;;11.67;;
5569;SDS011;2808;51.240;6.794;2022-07-23T02:45:23;22.27;;;12.37;;
5569;SDS011;2808;51.240;6.794;2022-07-23T02:47:52;25.03;;;11.97;;
5569;SDS011;2808;51.240;6.794;2022-07-23T02:50:21;24.20;;;13.20;;
5569;SDS011;2808;51.240;6.794;2022-07-23T02:52:49;41.97;;;21.63;;
5569;SDS011;2808;51.240;6.794;2022-07-23T02:55:16;41.60;;;24.70;;
5569;SDS011;2808;51.240;6.794;2022-07-23T02:57:43;29.80;;;15.27;;
5569;SDS011;2808;51.240;6.794;2022-07-23T03:00:11;24.53;;;14.17;;
5569;SDS011;2808;51.240;6.794;2022-07-23T03:02:39;43.80;;;22.30;;
5569;SDS011;2808;51.240;6.794;2022-07-23T03:05:07;35.63;;;20.13;;
5569;SDS011;2808;51.240;6.794;2022-07-23T03:07:36;49.30;;;29.87;;
5569;SDS011;2808;51.240;6.794;2022-07-23T03:10:04;49.43;;;31.20;;
5569;SDS011;2808;51.240;6.794;2022-07-23T03:12:32;33.67;;;19.20;;
5569;SDS011;2808;51.240;6.794;2022-07-23T03:15:00;24.27;;;13.50;;
5569;SDS011;2808;51.240;6.794;2022-07-23T03:17:27;25.57;;;14.10;;
5569;SDS011;2808;51.240;6.794;2022-07-23T03:19:55;25.80;;;13.23;;
5569;SDS011;2808;51.240;6.794;2022-07-23T03:22:22;29.03;;;13.00;;
5569;SDS011;2808;51.240;6.794;2022-07-23T03:24:51;28.57;;;14.57;;
5569;SDS011;2808;51.240;6.794;2022-07-23T03:27:22;24.60;;;14.43;;
5569;SDS011;2808;51.240;6.794;2022-07-23T03:29:50;23.20;;;13.83;;
5569;SDS011;2808;51.240;6.794;2022-07-23T03:32:19;23.90;;;14.73;;
5569;SDS011;2808;51.240;6.794;2022-07-23T03:34:46;27.83;;;13.90;;
5569;SDS011;2808;51.240;6.794;2022-07-23T03:37:14;23.70;;;13.13;;
5569;SDS011;2808;51.240;6.794;2022-07-23T03:39:42;24.60;;;13.10;;
5569;SDS011;2808;51.240;6.794;2022-07-23T03:42:11;22.23;;;12.90;;
5569;SDS011;2808;51.240;6.794;2022-07-23T03:44:40;25.67;;;13.37;;
5569;SDS011;2808;51.240;6.794;2022-07-23T03:47:07;29.70;;;13.80;;
5569;SDS011;2808;51.240;6.794;2022-07-23T03:49:35;25.87;;;14.40;;
5569;SDS011;2808;51.240;6.794;2022-07-23T03:52:03;28.97;;;14.33;;
5569;SDS011;2808;51.240;6.794;2022-07-23T03:54:31;24.13;;;13.47;;
5569;SDS011;2808;51.240;6.794;2022-07-23T03:56:58;28.53;;;14.60;;
5569;SDS011;2808;51.240;6.794;2022-07-23T03:59:27;25.27;;;14.33;;
5569;SDS011;2808;51.240;6.794;2022-07-23T04:01:54;22.20;;;12.60;;
5569;SDS011;2808;51.240;6.794;2022-07-23T04:04:22;30.63;;;13.47;;
5569;SDS011;2808;51.240;6.794;2022-07-23T04:06:49;23.90;;;13.87;;
5569;SDS011;2808;51.240;6.794;2022-07-23T04:09:17;21.40;;;13.60;;
5569;SDS011;2808;51.240;6.794;2022-07-23T04:11:44;22.07;;;13.00;;
5569;SDS011;2808;51.240;6.794;2022-07-23T04:14:11;24.30;;;13.33;;
5569;SDS011;2808;51.240;6.794;2022-07-23T04:16:42;28.40;;;13.27;;
5569;SDS011;2808;51.240;6.794;2022-07-23T04:19:09;19.73;;;11.70;;
5569;SDS011;2808;51.240;6.794;2022-07-23T04:21:37;17.97;;;11.80;;
5569;SDS011;2808;51.240;6.794;2022-07-23T04:24:05;23.27;;;12.13;;
5569;SDS011;2808;51.240;6.794;2022-07-23T04:26:32;22.17;;;13.33;;
5569;SDS011;2808;51.240;6.794;2022-07-23T04:29:00;19.33;;;11.80;;
5569;SDS011;2808;51.240;6.794;2022-07-23T04:31:27;22.10;;;11.03;;
5569;SDS011;2808;51.240;6.794;2022-07-23T04:33:56;20.83;;;11.07;;
5569;SDS011;2808;51.240;6.794;2022-07-23T04:36:23;21.17;;;10.77;;
5569;SDS011;2808;51.240;6.794;2022-07-23T04:38:51;22.00;;;10.90;;
5569;SDS011;2808;51.240;6.794;2022-07-23T04:41:19;16.23;;;10.43;;
5569;SDS011;2808;51.240;6.794;2022-07-23T04:43:47;17.70;;;10.30;;
5569;SDS011;2808;51.240;6.794;2022-07-23T04:46:14;15.37;;;9.90;;
5569;SDS011;2808;51.240;6.794;2022-07-23T04:48:44;15.73;;;10.30;;
5569;SDS011;2808;51.240;6.794;2022-07-23T04:51:14;16.80;;;9.87;;
5569;SDS011;2808;51.240;6.794;2022-07-23T04:53:42;21.13;;;9.90;;
5569;SDS011;2808;51.240;6.794;2022-07-23T04:56:10;17.93;;;9.40;;
5569;SDS011;2808;51.240;6.794;2022-07-23T04:58:37;15.07;;;9.80;;
5569;SDS011;2808;51.240;6.794;2022-07-23T05:01:05;13.33;;;8.00;;
5569;SDS011;2808;51.240;6.794;2022-07-23T05:03:32;17.47;;;9.27;;
5569;SDS011;2808;51.240;6.794;2022-07-23T05:06:00;16.97;;;8.80;;
5569;SDS011;2808;51.240;6.794;2022-07-23T05:08:30;17.00;;;8.50;;
5569;SDS011;2808;51.240;6.794;2022-07-23T05:10:58;18.03;;;8.60;;
5569;SDS011;2808;51.240;6.794;2022-07-23T05:13:26;13.20;;;8.50;;
5569;SDS011;2808;51.240;6.794;2022-07-23T05:15:59;12.63;;;8.00;;
5569;SDS011;2808;51.240;6.794;2022-07-23T05:18:26;14.07;;;8.43;;
5569;SDS011;2808;51.240;6.794;2022-07-23T05:20:54;16.80;;;8.60;;
5569;SDS011;2808;51.240;6.794;2022-07-23T05:23:21;13.53;;;7.60;;
5569;SDS011;2808;51.240;6.794;2022-07-23T05:25:50;13.10;;;8.13;;
5569;SDS011;2808;51.240;6.794;2022-07-23T05:28:18;13.30;;;8.60;;
5569;SDS011;2808;51.240;6.794;2022-07-23T05:30:45;14.70;;;8.43;;
5569;SDS011;2808;51.240;6.794;2022-07-23T05:33:13;20.37;;;9.37;;
5569;SDS011;2808;51.240;6.794;2022-07-23T05:35:40;12.97;;;8.07;;
5569;SDS011;2808;51.240;6.794;2022-07-23T05:38:07;15.80;;;9.10;;
5569;SDS011;2808;51.240;6.794;2022-07-23T05:40:35;17.10;;;8.43;;
5569;SDS011;2808;51.240;6.794;2022-07-23T05:43:04;15.80;;;8.90;;
5569;SDS011;2808;51.240;6.794;2022-07-23T05:45:31;14.77;;;8.30;;
5569;SDS011;2808;51.240;6.794;2022-07-23T05:47:59;12.97;;;7.77;;
5569;SDS011;2808;51.240;6.794;2022-07-23T05:50:26;11.57;;;7.33;;
5569;SDS011;2808;51.240;6.794;2022-07-23T05:52:54;16.57;;;7.77;;
5569;SDS011;2808;51.240;6.794;2022-07-23T05:55:21;12.80;;;8.13;;
5569;SDS011;2808;51.240;6.794;2022-07-23T05:57:49;17.00;;;9.00;;
5569;SDS011;2808;51.240;6.794;2022-07-23T06:00:18;16.50;;;8.87;;
5569;SDS011;2808;51.240;6.794;2022-07-23T06:02:45;14.53;;;8.40;;
5569;SDS011;2808;51.240;6.794;2022-07-23T06:05:13;16.90;;;8.50;;
5569;SDS011;2808;51.240;6.794;2022-07-23T06:07:41;18.90;;;9.40;;
5569;SDS011;2808;51.240;6.794;2022-07-23T06:10:08;14.17;;;8.77;;
5569;SDS011;2808;51.240;6.794;2022-07-23T06:12:36;13.90;;;8.30;;
5569;SDS011;2808;51.240;6.794;2022-07-23T06:15:04;15.07;;;9.43;;
5569;SDS011;2808;51.240;6.794;2022-07-23T06:17:34;13.57;;;8.13;;
5569;SDS011;2808;51.240;6.794;2022-07-23T06:20:05;15.60;;;9.57;;
5569;SDS011;2808;51.240;6.794;2022-07-23T06:22:34;15.20;;;9.67;;
5569;SDS011;2808;51.240;6.794;2022-07-23T06:25:02;17.37;;;10.70;;
5569;SDS011;2808;51.240;6.794;2022-07-23T06:27:30;12.17;;;7.97;;
5569;SDS011;2808;51.240;6.794;2022-07-23T06:29:57;20.37;;;10.87;;
5569;SDS011;2808;51.240;6.794;2022-07-23T06:32:24;16.20;;;8.77;;
5569;SDS011;2808;51.240;6.794;2022-07-23T06:34:54;19.27;;;10.13;;
5569;SDS011;2808;51.240;6.794;2022-07-23T06:37:21;17.53;;;9.90;;
5569;SDS011;2808;51.240;6.794;2022-07-23T06:39:49;17.67;;;10.53;;
5569;SDS011;2808;51.240;6.794;2022-07-23T06:42:18;20.23;;;10.97;;
5569;SDS011;2808;51.240;6.794;2022-07-23T06:44:45;17.50;;;11.33;;
5569;SDS011;2808;51.240;6.794;2022-07-23T06:47:13;17.53;;;10.63;;
5569;SDS011;2808;51.240;6.794;2022-07-23T06:49:40;16.47;;;10.00;;
5569;SDS011;2808;51.240;6.794;2022-07-23T06:52:09;17.90;;;10.53;;
5569;SDS011;2808;51.240;6.794;2022-07-23T06:54:36;18.37;;;10.27;;
5569;SDS011;2808;51.240;6.794;2022-07-23T06:57:04;14.83;;;9.70;;
5569;SDS011;2808;51.240;6.794;2022-07-23T06:59:31;20.00;;;11.60;;
5569;SDS011;2808;51.240;6.794;2022-07-23T07:02:01;22.93;;;10.80;;
5569;SDS011;2808;51.240;6.794;2022-07-23T07:04:28;17.63;;;11.53;;
5569;SDS011;2808;51.240;6.794;2022-07-23T07:06:57;18.83;;;12.67;;
5569;SDS011;2808;51.240;6.794;2022-07-23T07:09:25;17.43;;;9.60;;
5569;SDS011;2808;51.240;6.794;2022-07-23T07:11:55;16.80;;;9.90;;
5569;SDS011;2808;51.240;6.794;2022-07-23T07:14:22;18.27;;;9.27;;
5569;SDS011;2808;51.240;6.794;2022-07-23T07:16:50;16.20;;;10.27;;
5569;SDS011;2808;51.240;6.794;2022-07-23T07:19:17;17.30;;;8.67;;
5569;SDS011;2808;51.240;6.794;2022-07-23T07:21:45;15.40;;;8.70;;
5569;SDS011;2808;51.240;6.794;2022-07-23T07:24:14;16.47;;;10.20;;
5569;SDS011;2808;51.240;6.794;2022-07-23T07:26:43;15.20;;;9.40;;
5569;SDS011;2808;51.240;6.794;2022-07-23T07:29:10;17.53;;;9.43;;
5569;SDS011;2808;51.240;6.794;2022-07-23T07:31:37;21.47;;;10.50;;
5569;SDS011;2808;51.240;6.794;2022-07-23T07:34:05;16.87;;;10.83;;
5569;SDS011;2808;51.240;6.794;2022-07-23T07:36:32;18.37;;;10.23;;
5569;SDS011;2808;51.240;6.794;2022-07-23T07:39:02;18.03;;;9.93;;
5569;SDS011;2808;51.240;6.794;2022-07-23T07:41:30;18.43;;;9.90;;
5569;SDS011;2808;51.240;6.794;2022-07-23T07:43:59;19.00;;;11.10;;
5569;SDS011;2808;51.240;6.794;2022-07-23T07:46:26;16.73;;;9.63;;
5569;SDS011;2808;51.240;6.794;2022-07-23T07:48:54;20.40;;;10.00;;
5569;SDS011;2808;51.240;6.794;2022-07-23T07:51:21;23.87;;;13.50;;
5569;SDS011;2808;51.240;6.794;2022-07-23T07:53:49;30.37;;;22.37;;
5569;SDS011;2808;51.240;6.794;2022-07-23T07:56:16;20.37;;;11.30;;
5569;SDS011;2808;51.240;6.794;2022-07-23T07:58:44;17.90;;;11.27;;
5569;SDS011;2808;51.240;6.794;2022-07-23T08:01:13;27.10;;;14.30;;
5569;SDS011;2808;51.240;6.794;2022-07-23T08:03:42;28.67;;;15.90;;
5569;SDS011;2808;51.240;6.794;2022-07-23T08:06:09;20.93;;;13.67;;
5569;SDS011;2808;51.240;6.794;2022-07-23T08:08:37;26.40;;;15.30;;
5569;SDS011;2808;51.240;6.794;2022-07-23T08:11:04;32.97;;;17.97;;
5569;SDS011;2808;51.240;6.794;2022-07-23T08:13:32;27.80;;;16.30;;
5569;SDS011;2808;51.240;6.794;2022-07-23T08:16:00;27.57;;;16.57;;
5569;SDS011;2808;51.240;6.794;2022-07-23T08:18:30;31.13;;;20.10;;
5569;SDS011;2808;51.240;6.794;2022-07-23T08:20:57;32.33;;;23.37;;
5569;SDS011;2808;51.240;6.794;2022-07-23T08:23:25;28.37;;;18.47;;
5569;SDS011;2808;51.240;6.794;2022-07-23T08:25:54;32.10;;;19.30;;
5569;SDS011;2808;51.240;6.794;2022-07-23T08:28:22;33.90;;;19.47;;
5569;SDS011;2808;51.240;6.794;2022-07-23T08:30:50;27.63;;;16.70;;
5569;SDS011;2808;51.240;6.794;2022-07-23T08:33:18;22.40;;;15.20;;
5569;SDS011;2808;51.240;6.794;2022-07-23T08:35:47;23.73;;;15.60;;
5569;SDS011;2808;51.240;6.794;2022-07-23T08:38:18;27.10;;;15.10;;
5569;SDS011;2808;51.240;6.794;2022-07-23T08:40:47;19.37;;;11.63;;
5569;SDS011;2808;51.240;6.794;2022-07-23T08:43:16;16.43;;;10.97;;
5569;SDS011;2808;51.240;6.794;2022-07-23T08:45:46;15.50;;;10.57;;
5569;SDS011;2808;51.240;6.794;2022-07-23T08:48:15;16.63;;;11.30;;
5569;SDS011;2808;51.240;6.794;2022-07-23T08:51:00;19.30;;;9.90;;
5569;SDS011;2808;51.240;6.794;2022-07-23T08:53:32;18.80;;;9.70;;
5569;SDS011;2808;51.240;6.794;2022-07-23T08:56:21;22.13;;;10.30;;
5569;SDS011;2808;51.240;6.794;2022-07-23T08:59:31;12.80;;;7.10;;
5569;SDS011;2808;51.240;6.794;2022-07-23T09:02:07;15.93;;;6.60;;
5569;SDS011;2808;51.240;6.794;2022-07-23T09:04:38;14.20;;;6.40;;
5569;SDS011;2808;51.240;6.794;2022-07-23T09:07:11;16.23;;;7.10;;
5569;SDS011;2808;51.240;6.794;2022-07-23T09:09:42;16.00;;;7.33;;
5569;SDS011;2808;51.240;6.794;2022-07-23T09:12:09;16.60;;;8.90;;
5569;SDS011;2808;51.240;6.794;2022-07-23T09:14:38;14.60;;;8.17;;
5569;SDS011;2808;51.240;6.794;2022-07-23T09:17:10;19.10;;;9.20;;
5569;SDS011;2808;51.240;6.794;2022-07-23T09:19:38;12.60;;;7.23;;
5569;SDS011;2808;51.240;6.794;2022-07-23T09:22:20;17.20;;;7.63;;
5569;SDS011;2808;51.240;6.794;2022-07-23T09:25:05;12.97;;;7.07;;
5569;SDS011;2808;51.240;6.794;2022-07-23T09:27:45;13.57;;;7.57;;
5569;SDS011;2808;51.240;6.794;2022-07-23T09:30:20;12.60;;;7.20;;
5569;SDS011;2808;51.240;6.794;2022-07-23T09:33:04;15.30;;;6.60;;
5569;SDS011;2808;51.240;6.794;2022-07-23T09:35:49;16.47;;;7.20;;
5569;SDS011;2808;51.240;6.794;2022-07-23T09:38:20;13.40;;;7.83;;
5569;SDS011;2808;51.240;6.794;2022-07-23T09:41:04;14.60;;;6.87;;
5569;SDS011;2808;51.240;6.794;2022-07-23T09:43:33;14.73;;;5.50;;
5569;SDS011;2808;51.240;6.794;2022-07-23T09:48:43;10.37;;;5.17;;
5569;SDS011;2808;51.240;6.794;2022-07-23T09:51:11;13.77;;;6.40;;
5569;SDS011;2808;51.240;6.794;2022-07-23T09:53:40;21.03;;;6.60;;
5569;SDS011;2808;51.240;6.794;2022-07-23T09:56:07;11.90;;;6.77;;
5569;SDS011;2808;51.240;6.794;2022-07-23T09:58:37;12.67;;;6.23;;
5569;SDS011;2808;51.240;6.794;2022-07-23T10:01:10;15.63;;;5.10;;
5569;SDS011;2808;51.240;6.794;2022-07-23T10:03:39;11.27;;;4.57;;
5569;SDS011;2808;51.240;6.794;2022-07-23T10:06:08;8.13;;;4.40;;
5569;SDS011;2808;51.240;6.794;2022-07-23T10:08:36;13.43;;;4.57;;
5569;SDS011;2808;51.240;6.794;2022-07-23T10:11:10;8.67;;;3.70;;
5569;SDS011;2808;51.240;6.794;2022-07-23T10:13:39;12.00;;;5.80;;
5569;SDS011;2808;51.240;6.794;2022-07-23T10:16:21;13.07;;;4.83;;
5569;SDS011;2808;51.240;6.794;2022-07-23T10:18:51;11.40;;;4.73;;
5569;SDS011;2808;51.240;6.794;2022-07-23T10:21:21;11.13;;;4.37;;
5569;SDS011;2808;51.240;6.794;2022-07-23T10:24:01;10.20;;;4.73;;
5569;SDS011;2808;51.240;6.794;2022-07-23T10:26:40;12.83;;;4.70;;
5569;SDS011;2808;51.240;6.794;2022-07-23T10:29:19;8.60;;;3.90;;
5569;SDS011;2808;51.240;6.794;2022-07-23T10:32:00;15.40;;;4.77;;
5569;SDS011;2808;51.240;6.794;2022-07-23T10:34:37;10.23;;;4.07;;
5569;SDS011;2808;51.240;6.794;2022-07-23T10:37:12;12.73;;;4.63;;
5569;SDS011;2808;51.240;6.794;2022-07-23T10:39:47;10.57;;;4.60;;
5569;SDS011;2808;51.240;6.794;2022-07-23T10:42:34;11.10;;;4.23;;
5569;SDS011;2808;51.240;6.794;2022-07-23T10:45:08;9.60;;;5.20;;
5569;SDS011;2808;51.240;6.794;2022-07-23T10:47:50;11.13;;;5.00;;
5569;SDS011;2808;51.240;6.794;2022-07-23T10:50:18;12.37;;;5.27;;
5569;SDS011;2808;51.240;6.794;2022-07-23T10:55:51;7.60;;;3.47;;
5569;SDS011;2808;51.240;6.794;2022-07-23T10:58:21;9.63;;;3.90;;
5569;SDS011;2808;51.240;6.794;2022-07-23T11:03:58;11.60;;;4.13;;
5569;SDS011;2808;51.240;6.794;2022-07-23T11:09:26;11.03;;;3.93;;
5569;SDS011;2808;51.240;6.794;2022-07-23T11:15:12;9.80;;;3.90;;
5569;SDS011;2808;51.240;6.794;2022-07-23T11:20:26;12.90;;;4.80;;
5569;SDS011;2808;51.240;6.794;2022-07-23T11:22:54;11.70;;;4.70;;
5569;SDS011;2808;51.240;6.794;2022-07-23T11:25:30;9.57;;;5.50;;
5569;SDS011;2808;51.240;6.794;2022-07-23T11:28:10;11.67;;;5.10;;
5569;SDS011;2808;51.240;6.794;2022-07-23T11:30:44;12.50;;;5.20;;
5569;SDS011;2808;51.240;6.794;2022-07-23T11:33:16;11.33;;;5.33;;
5569;SDS011;2808;51.240;6.794;2022-07-23T11:35:46;9.50;;;3.93;;
5569;SDS011;2808;51.240;6.794;2022-07-23T11:38:16;10.33;;;3.60;;
5569;SDS011;2808;51.240;6.794;2022-07-23T11:40:45;9.63;;;4.30;;
5569;SDS011;2808;51.240;6.794;2022-07-23T11:43:15;6.37;;;2.97;;
5569;SDS011;2808;51.240;6.794;2022-07-23T11:45:45;7.33;;;3.83;;
5569;SDS011;2808;51.240;6.794;2022-07-23T11:48:17;9.70;;;3.90;;
5569;SDS011;2808;51.240;6.794;2022-07-23T11:50:46;8.63;;;3.60;;
5569;SDS011;2808;51.240;6.794;2022-07-23T11:53:20;10.00;;;4.00;;
5569;SDS011;2808;51.240;6.794;2022-07-23T11:56:02;10.60;;;3.80;;
5569;SDS011;2808;51.240;6.794;2022-07-23T11:58:30;12.43;;;3.77;;
5569;SDS011;2808;51.240;6.794;2022-07-23T12:00:59;9.70;;;4.27;;
5569;SDS011;2808;51.240;6.794;2022-07-23T12:03:27;12.73;;;4.57;;
5569;SDS011;2808;51.240;6.794;2022-07-23T12:05:55;13.00;;;3.63;;
5569;SDS011;2808;51.240;6.794;2022-07-23T12:08:24;10.43;;;4.43;;
5569;SDS011;2808;51.240;6.794;2022-07-23T12:10:52;13.00;;;4.33;;
5569;SDS011;2808;51.240;6.794;2022-07-23T12:13:20;8.63;;;4.20;;
5569;SDS011;2808;51.240;6.794;2022-07-23T12:15:49;10.30;;;4.30;;
5569;SDS011;2808;51.240;6.794;2022-07-23T12:18:20;10.10;;;4.33;;
5569;SDS011;2808;51.240;6.794;2022-07-23T12:20:50;9.07;;;4.30;;
5569;SDS011;2808;51.240;6.794;2022-07-23T12:23:19;11.03;;;4.10;;
5569;SDS011;2808;51.240;6.794;2022-07-23T12:25:49;8.60;;;3.90;;
5569;SDS011;2808;51.240;6.794;2022-07-23T12:28:19;10.10;;;5.03;;
5569;SDS011;2808;51.240;6.794;2022-07-23T12:30:48;14.13;;;3.80;;
5569;SDS011;2808;51.240;6.794;2022-07-23T12:33:22;7.60;;;4.00;;
5569;SDS011;2808;51.240;6.794;2022-07-23T12:35:51;8.20;;;3.47;;
5569;SDS011;2808;51.240;6.794;2022-07-23T12:38:20;12.73;;;4.57;;
5569;SDS011;2808;51.240;6.794;2022-07-23T12:40:52;7.37;;;3.83;;
5569;SDS011;2808;51.240;6.794;2022-07-23T12:43:21;11.23;;;3.90;;
5569;SDS011;2808;51.240;6.794;2022-07-23T12:45:50;6.67;;;3.33;;
5569;SDS011;2808;51.240;6.794;2022-07-23T12:48:24;7.80;;;3.63;;
5569;SDS011;2808;51.240;6.794;2022-07-23T12:50:53;5.80;;;3.20;;
5569;SDS011;2808;51.240;6.794;2022-07-23T12:53:27;7.57;;;3.77;;
5569;SDS011;2808;51.240;6.794;2022-07-23T12:56:05;6.97;;;3.00;;
5569;SDS011;2808;51.240;6.794;2022-07-23T12:58:41;7.70;;;3.53;;
5569;SDS011;2808;51.240;6.794;2022-07-23T13:01:22;6.23;;;3.13;;
5569;SDS011;2808;51.240;6.794;2022-07-23T13:03:59;8.20;;;3.57;;
5569;SDS011;2808;51.240;6.794;2022-07-23T13:06:31;8.43;;;3.23;;
5569;SDS011;2808;51.240;6.794;2022-07-23T13:09:00;8.07;;;3.10;;
5569;SDS011;2808;51.240;6.794;2022-07-23T13:11:29;6.70;;;2.70;;
5569;SDS011;2808;51.240;6.794;2022-07-23T13:13:57;7.83;;;2.80;;
5569;SDS011;2808;51.240;6.794;2022-07-23T13:16:25;6.30;;;2.93;;
5569;SDS011;2808;51.240;6.794;2022-07-23T13:18:55;5.97;;;3.00;;
5569;SDS011;2808;51.240;6.794;2022-07-23T13:21:24;8.30;;;3.40;;
5569;SDS011;2808;51.240;6.794;2022-07-23T13:23:52;12.00;;;2.63;;
5569;SDS011;2808;51.240;6.794;2022-07-23T13:26:21;9.23;;;2.90;;
5569;SDS011;2808;51.240;6.794;2022-07-23T13:28:52;6.00;;;2.63;;
5569;SDS011;2808;51.240;6.794;2022-07-23T13:31:23;6.30;;;2.87;;
5569;SDS011;2808;51.240;6.794;2022-07-23T13:33:50;4.43;;;2.20;;
5569;SDS011;2808;51.240;6.794;2022-07-23T13:36:18;4.10;;;2.10;;
5569;SDS011;2808;51.240;6.794;2022-07-23T13:38:47;6.10;;;2.60;;
5569;SDS011;2808;51.240;6.794;2022-07-23T13:41:16;6.03;;;2.70;;
5569;SDS011;2808;51.240;6.794;2022-07-23T13:43:43;5.40;;;2.40;;
5569;SDS011;2808;51.240;6.794;2022-07-23T13:46:15;6.93;;;2.47;;
5569;SDS011;2808;51.240;6.794;2022-07-23T13:48:43;5.23;;;2.70;;
5569;SDS011;2808;51.240;6.794;2022-07-23T13:51:13;5.00;;;2.30;;
5569;SDS011;2808;51.240;6.794;2022-07-23T13:53:43;4.70;;;2.57;;
5569;SDS011;2808;51.240;6.794;2022-07-23T13:56:13;7.70;;;3.00;;
5569;SDS011;2808;51.240;6.794;2022-07-23T13:58:41;4.83;;;2.80;;
5569;SDS011;2808;51.240;6.794;2022-07-23T14:01:11;5.30;;;2.30;;
5569;SDS011;2808;51.240;6.794;2022-07-23T14:03:40;6.07;;;2.57;;
5569;SDS011;2808;51.240;6.794;2022-07-23T14:06:08;9.80;;;2.87;;
5569;SDS011;2808;51.240;6.794;2022-07-23T14:08:35;4.50;;;2.53;;
5569;SDS011;2808;51.240;6.794;2022-07-23T14:11:03;10.33;;;3.23;;
5569;SDS011;2808;51.240;6.794;2022-07-23T14:13:32;7.50;;;2.40;;
5569;SDS011;2808;51.240;6.794;2022-07-23T14:15:59;7.50;;;2.90;;
5569;SDS011;2808;51.240;6.794;2022-07-23T14:18:27;4.57;;;2.50;;
5569;SDS011;2808;51.240;6.794;2022-07-23T14:20:54;7.90;;;2.47;;
5569;SDS011;2808;51.240;6.794;2022-07-23T14:23:22;7.50;;;2.73;;
5569;SDS011;2808;51.240;6.794;2022-07-23T14:25:49;4.80;;;2.57;;
5569;SDS011;2808;51.240;6.794;2022-07-23T14:28:17;8.63;;;3.13;;
5569;SDS011;2808;51.240;6.794;2022-07-23T14:30:47;14.13;;;2.87;;
5569;SDS011;2808;51.240;6.794;2022-07-23T14:33:14;4.90;;;2.60;;
5569;SDS011;2808;51.240;6.794;2022-07-23T14:35:42;4.53;;;2.50;;
5569;SDS011;2808;51.240;6.794;2022-07-23T14:38:09;6.43;;;2.80;;
5569;SDS011;2808;51.240;6.794;2022-07-23T14:40:37;7.60;;;2.30;;
5569;SDS011;2808;51.240;6.794;2022-07-23T14:43:04;4.00;;;2.20;;
5569;SDS011;2808;51.240;6.794;2022-07-23T14:45:32;5.67;;;2.87;;
5569;SDS011;2808;51.240;6.794;2022-07-23T14:48:01;6.07;;;2.30;;
5569;SDS011;2808;51.240;6.794;2022-07-23T14:50:28;5.30;;;2.50;;
5569;SDS011;2808;51.240;6.794;2022-07-23T14:52:56;7.07;;;2.53;;
5569;SDS011;2808;51.240;6.794;2022-07-23T14:55:24;3.93;;;2.10;;
5569;SDS011;2808;51.240;6.794;2022-07-23T14:57:51;6.77;;;3.00;;
5569;SDS011;2808;51.240;6.794;2022-07-23T15:00:18;4.30;;;2.30;;
5569;SDS011;2808;51.240;6.794;2022-07-23T15:02:47;6.50;;;2.73;;
5569;SDS011;2808;51.240;6.794;2022-07-23T15:05:16;5.40;;;2.60;;
5569;SDS011;2808;51.240;6.794;2022-07-23T15:07:44;8.27;;;2.90;;
5569;SDS011;2808;51.240;6.794;2022-07-23T15:10:11;6.77;;;2.97;;
5569;SDS011;2808;51.240;6.794;2022-07-23T15:12:39;5.57;;;2.47;;
5569;SDS011;2808;51.240;6.794;2022-07-23T15:15:07;9.50;;;3.03;;
5569;SDS011;2808;51.240;6.794;2022-07-23T15:17:35;10.10;;;3.00;;
5569;SDS011;2808;51.240;6.794;2022-07-23T15:20:03;6.30;;;2.60;;
5569;SDS011;2808;51.240;6.794;2022-07-23T15:22:33;6.60;;;2.67;;
5569;SDS011;2808;51.240;6.794;2022-07-23T15:25:01;4.70;;;2.73;;
5569;SDS011;2808;51.240;6.794;2022-07-23T15:27:29;5.73;;;2.73;;
5569;SDS011;2808;51.240;6.794;2022-07-23T15:29:57;8.33;;;2.70;;
5569;SDS011;2808;51.240;6.794;2022-07-23T15:32:25;5.73;;;2.63;;
5569;SDS011;2808;51.240;6.794;2022-07-23T15:34:52;5.20;;;2.80;;